Aviation Digital Data Service (ADDS)

Output produced by METARs form (0713 UTC 29 June 2016)
found at http://www.aviationweather.gov/adds/metars/
 
KSBY 290654Z AUTO 00000KT 10SM BKN090 21/19 A2986 RMK AO2 SLP114 T02060194
KSBY 290550Z 2906/3006 30005KT P6SM BKN060 
     TEMPO 2908/2910 2SM BR 
     FM291200 33008KT P6SM SCT040 
     FM300300 VRB03KT 4SM BR SCT040